< < Back
Terminal Aerodrome Forecast


Current Version              Previous Versions:   1  2  3  4  5  6  7  8  9  

Terminal Aerodrome Forecast

819
FTUS42 KFFC 080543
TAFPDK
TAF
KPDK 080543Z 0806/0906 25005KT P6SM SCT250
     FM081600 27005KT P6SM SCT050
     FM090200 24004KT P6SM SCT250=

Latest METAR

193
SAUS70 KWBC 080600 RRA
MTRPDK
METAR KPDK 080553Z AUTO 28003KT 7SM CLR 25/22 A3017 RMK AO2 SLP195
T02500217 10294 20250 50000 TSNO


USA.gov is the U.S. government's official web portal to all federal, state and local government web resources and services.